Christian Aaronson

Olheiro-Chefe - Nashville SC
17 Jul 2027
Sábado
Processo

Personalidade

Adaptabilidade (5) Ambição (10) Controvérsia (16) Lealdade (2) Pressão (18) Profissionalismo (7) Espírito Esportivo (6) Temperamento (19)

Perfil

Estilo de Treinamento Democrático
Licença Nacional A
Determinação 8
Gestão de Pessoas 8
Motivação 8
Disciplina 8
Satisfação no Trabalho
99%
Fadiga
0%
Função Olheiro-Chefe
Salário 58.9K p/s
Contrato 14.03.2028

Desempenho

Comportamento Bom
Eficácia do Treinamento
43%
Desenvolvimento do Jogador
60%
Prevenção de Lesões
60%
Implementação Tática
40%

Eventos Recentes

Participou de uma reunião de recrutamento 7d atrás
Participou de uma reunião de recrutamento 7d atrás
Participou de uma reunião de recrutamento 14d atrás
Participou de uma reunião de recrutamento 14d atrás
Observou uma partida 14d atrás
Participou de uma reunião de recrutamento 21d atrás
Participou de uma reunião de recrutamento 21d atrás
Observou uma partida 21d atrás

Monitorando agora

120
Jogador Clube Status Habilidade Confiança Observado Última observação Último voto
Ilyas Ansah Hull City Ativo 135 / 132 40% 2 07.07.2027 -
Sam Greenwood Bristol City Ativo 131 / 127 40% 1 07.07.2027 -
Gladson Sulemana Liberty Professionals Ativo 109 / 97 40% 2 29.03.2027 -
Luca Bombino Stoke City Ativo 90 / 108 40% 1 29.03.2027 -
Peter Amidu Acquah Asante Kotoko Ativo 85 / 111 40% 1 20.02.2027 -
Kirill Glebov CSKA Moscow Ativo 113 / 117 40% 1 20.02.2027 -
Aune Heggebø West Bromwich Albion Ativo 117 / 118 40% 4 14.02.2027 -
Abu Kamara Portsmouth Ativo 124 / 122 40% 1 14.02.2027 -
Victor Ehibe Gazelle Garoua Ativo 91 / 81 40% 3 12.02.2027 -
Johan Manzambi Manchester United Ativo 127 / 145 40% 2 12.02.2027 Mais informações
Mohammed Wakaso Hasaacas Ativo 110 / 114 40% 2 10.02.2027 -
Zian Flemming Ipswich Town Ativo 132 / 127 40% 3 08.02.2027 -
Davis Keillor-Dunn Wrexham Ativo 122 / 124 40% 2 08.02.2027 -
Jovon Makama Norwich City Ativo 123 / 121 40% 2 06.02.2027 -
George Hirst Stoke City Ativo 137 / 127 40% 1 06.02.2027 -
Bertrand Traoré Sunderland Ativo 145 / 132 40% 1 04.02.2027 -
Cameron Archer Southampton Ativo 127 / 119 40% 1 04.02.2027 -
Edmund Nuhu BA All Stars Ativo 61 / 92 40% 2 03.02.2027 -
Abraham Paintsil Hasaacas Ativo 81 / 95 40% 2 03.02.2027 -
Gianluca Scamacca Atalanta Ativo 162 / 141 40% 1 03.02.2027 -
Thomas Atiemo Wa All Stars Ativo 84 / 74 40% 3 01.02.2027 -
Dávid Strelec Middlesbrough Ativo 131 / 141 40% 1 31.01.2027 -
Lamine Cissé Peterborough United Ativo 115 / 122 40% 1 28.01.2027 -
Christos Mouzakitis Hull City Ativo 124 / 142 40% 4 26.01.2027 -
Patrick Agyemang Derby County Ativo 134 / 121 40% 2 23.01.2027 -
Oli McBurnie Hull City Ativo 142 / 134 40% 1 23.01.2027 -
Mihailo Ivanović Millwall Ativo 119 / 123 40% 1 22.01.2027 -
Edmund Inusah WAFA Ativo 66 / 93 40% 1 21.01.2027 -
Taras Mykhavko Dynamo Kyiv Ativo 145 / 119 40% 1 19.01.2027 -
Richard Koné Queens Park Rangers Ativo 123 / 128 40% 3 16.01.2027 -
Charlie Kelman Charlton Athletic Ativo 100 / 113 40% 1 14.01.2027 -
Zech Obiero Harrogate Town Ativo 97 / 87 40% 1 13.01.2027 -
Shea Lacey Millwall Ativo 119 / 133 40% 1 13.01.2027 -
Lukas Nmecha Leeds United Ativo 134 / 122 40% 1 13.01.2027 -
Carlton Morris Derby County Ativo 120 / 117 40% 1 12.01.2027 -
Darius Lane Brighton Ativo 93 / 83 40% 1 10.01.2027 -
Riley Owen Wycombe Wanderers Ativo 108 / 112 40% 1 09.01.2027 -
Brandon Khela Peterborough United Ativo 109 / 94 40% 1 08.01.2027 -
Rumarn Burrell Queens Park Rangers Ativo 132 / 123 40% 1 06.01.2027 -
Ronan Kpakio Brentford Ativo 116 / 122 40% 1 06.01.2027 -
David Ozoh Derby County Ativo 114 / 133 40% 1 05.01.2027 -
Maeson King Blackpool Ativo 114 / 102 40% 1 03.01.2027 -
Elijah Adebayo Luton Town Ativo 129 / 132 40% 1 02.01.2027 -
Mathias Jørgensen Blackburn Rovers Ativo 108 / 124 40% 1 31.12.2026 -
Josh Coburn Millwall Ativo 110 / 128 40% 1 30.12.2026 -
Karlan Grant West Bromwich Albion Ativo 128 / 114 40% 1 30.12.2026 -
Dom Ballard Leyton Orient Ativo 125 / 124 40% 1 27.12.2026 -
Caleb Yirenkyi Coventry City Ativo 121 / 131 40% 1 26.12.2026 -
Breel Embolo Atlanta United FC Ativo 143 / 127 40% 3 23.12.2026 -
Joel McGregor Swindon Town Ativo 90 / 102 40% 1 23.12.2026 -
Veljko Birmančević Ferencvaros Ativo 132 / 127 40% 2 22.12.2026 -
Stephen Odey Ittihad Ativo 100 / 124 40% 2 22.12.2026 -
Moussa Yeo Swansea City Ativo 120 / 123 40% 1 19.12.2026 -
David Miculescu FCSB Ativo 141 / 125 40% 1 18.12.2026 -
Samuel Kalu Botev Plovdiv Ativo 106 / 112 40% 1 18.12.2026 -
Chinedu Geoffrey Krylya Sovetov Ativo 137 / 111 40% 2 17.12.2026 -
Santiago Pierotti Lecce Ativo 117 / 140 40% 1 15.12.2026 -
Morgan Guilavogui Real Salt Lake Ativo 122 / 122 40% 2 14.12.2026 -
Etiosa Ighodaro Kaizer Chiefs Ativo 128 / 108 40% 1 14.12.2026 -
Mbekezeli Mbokazi Chicago Fire Ativo 117 / 134 40% 1 12.12.2026 -
Alonso Martínez NK Osijek Ativo 139 / 117 40% 2 11.12.2026 -
Korede Osundina Casa Pia Ativo 107 / 112 40% 1 11.12.2026 -
Luca Langoni New England Revolution Ativo 137 / 122 40% 1 07.12.2026 -
Guilherme Houston Dynamo Ativo 131 / 115 40% 4 05.12.2026 -
Kelvin Yeboah Minnesota United FC Ativo 119 / 115 40% 5 02.12.2026 -
Matías Fernández-Pardo Newcastle United Ativo 144 / 147 40% 2 02.12.2026 -
Luther Tau SuperSport United Ativo 108 / 99 40% 2 01.12.2026 -
Kévin Denkey FC Cincinnati Ativo 123 / 125 40% 4 26.11.2026 -
Sergio Castillo Cortulua Ativo 91 / 118 40% 1 26.11.2026 -
Josh Wynder Benfica Ativo 97 / 121 40% 1 25.11.2026 -
Ammar Ramadan DAC Dunajska Streda Ativo 107 / 136 40% 1 22.11.2026 -
Jesus Ferreira Seattle Sounders Ativo 134 / 127 40% 1 22.11.2026 -
Seedy Jatta Sturm Graz Ativo 124 / 125 40% 1 20.11.2026 -
Rafael Navarro St. Louis CITY SC Ativo 134 / 130 40% 2 19.11.2026 -
Troy Parrott Betis Ativo 137 / 147 40% 1 18.11.2026 -
Josh Sargent Toronto FC Ativo 142 / 121 40% 6 17.11.2026 -
Simphiwe Selepe Orlando Pirates Ativo 126 / 127 40% 1 16.11.2026 -
Mojmír Chytil Hajduk Split Ativo 118 / 147 40% 1 15.11.2026 -
Dario Vizinger NK Maribor Ativo 117 / 122 40% 1 15.11.2026 -
João Klauss LA Galaxy Ativo 124 / 116 40% 1 14.11.2026 -
Prince Owusu CF Montreal Ativo 131 / 113 40% 5 13.11.2026 -
Luther Ngcobo Ajax Cape Town Ativo 79 / 111 40% 1 12.11.2026 -
Jorrel Hato Chelsea Ativo 134 / 158 40% 1 12.11.2026 -
Liel Abada Charlotte Football Club Ativo 127 / 122 40% 3 10.11.2026 -
Tadeo Allende Inter Miami CF Ativo 118 / 125 40% 2 09.11.2026 -
Reuell Walters Luton Town Ativo 124 / 117 40% 1 08.11.2026 -
Maurice Malone Minnesota United FC Ativo 132 / 118 40% 3 06.11.2026 -
Marin Benko Zadar Ativo 116 / 122 40% 1 03.11.2026 -
Emmanuel Sabbi Vancouver Whitecaps Ativo 112 / 119 40% 1 02.11.2026 -
Marcelo Torres Gimnasia La Plata Ativo 105 / 121 40% 1 01.11.2026 -
Wessam Abou Ali Columbus Crew Ativo 132 / 126 40% 4 31.10.2026 -
Matej Trusa DAC Dunajska Streda Ativo 131 / 115 40% 1 26.10.2026 -
Denis Bouanga Los Angeles Football Club Ativo 130 / 132 40% 2 25.10.2026 -
Cheikh Sabaly Vancouver Whitecaps Ativo 138 / 120 40% 2 23.10.2026 -
Armstrong Oko-Flex Levski Ativo 100 / 121 40% 1 22.10.2026 -
Brayan Gil Baltika Ativo 141 / 125 40% 2 21.10.2026 -
Duncan McGuire Houston Dynamo Ativo 131 / 126 40% 1 20.10.2026 -
Iqraam Rayners Mamelodi Sundowns Ativo 126 / 124 40% 2 17.10.2026 -
Bongokuhle Hlongwane Minnesota United FC Ativo 111 / 126 40% 3 16.10.2026 -
Jordan Morris Seattle Sounders Ativo 119 / 120 40% 2 15.10.2026 -
Milan Iloski Philadelphia Union Ativo 115 / 115 40% 1 10.10.2026 -
Camilo Durán Bloemfontein Celtic Ativo 102 / 125 40% 3 09.10.2026 -
Olaniyi Saheed Kwara United Ativo 99 / 102 40% 1 04.10.2026 -
Jeremy Ebobisse Los Angeles Football Club Ativo 117 / 120 40% 2 02.10.2026 -
Bojan Radulović Huddersfield Town Ativo 118 / 121 40% 1 01.10.2026 -
Brandon Vázquez Austin FC Ativo 109 / 125 40% 1 01.10.2026 -
Kyogo Furuhashi LA Galaxy Ativo 123 / 125 40% 1 30.09.2026 -
Chisom Ogbun Warri Wolves Ativo 91 / 80 40% 1 29.09.2026 -
Lebo Mothiba Mamelodi Sundowns Ativo 126 / 108 40% 1 24.09.2026 -
Gady Beyuku Blackburn Rovers Ativo 116 / 118 40% 2 21.09.2026 -
Bénie Traoré New York City Ativo 126 / 116 40% 2 21.09.2026 -
Bruno Damiani Philadelphia Union Ativo 106 / 112 40% 1 21.09.2026 -
Louis Munteanu DC United Ativo 139 / 130 40% 1 19.09.2026 -
Lewis Morgan Toronto FC Ativo 128 / 116 40% 1 18.09.2026 -
Daniel Kelly Derby County Ativo 118 / 120 40% 1 14.09.2026 -
Maldini Kacurri Grimsby Town Ativo 78 / 103 40% 1 14.09.2026 -
Kian Noble Manchester City Ativo 87 / 90 40% 1 13.09.2026 -
Ramiro Ruiz Rodríguez Atlético Tucumán Ativo 107 / 119 40% 1 10.09.2026 -
Leonardo Campana New England Revolution Ativo 122 / 127 40% 1 07.09.2026 -
Williams Mahlangu SuperSport United Ativo 118 / 121 40% 1 01.08.2026 -